Time;durP1;ratioP1;P1;durP2;ratioP2;P2;SDS_P1;SDS_P2;PMS_P1;PMS_P2;Temp;Humidity;BMP_temperature;BMP_pressure;BME280_temperature;BME280_humidity;BME280_pressure;Samples;Min_cycle;Max_cycle;Signal;HPM_P1;HPM_P2
2023/10/30 00:02:42;;;;;;;11.93;4.47;;;;;;;;;;6084176;23;20212;-91
2023/10/30 00:05:48;;;;;;;12.57;4.32;;;;;;;;;;6100879;23;20230;-91
2023/10/30 00:08:54;;;;;;;10.50;4.47;;;;;;;;;;6082503;23;20170;-92
2023/10/30 00:12:00;;;;;;;10.00;4.20;;;;;;;;;;6083708;23;20195;-90
2023/10/30 00:15:08;;;;;;;9.88;3.95;;;;;;;;;;6082829;23;20634;-91
2023/10/30 00:18:14;;;;;;;9.30;4.25;;;;;;;;;;6083755;23;20354;-91
2023/10/30 00:21:19;;;;;;;10.70;3.70;;;;;;;;;;6099817;23;20170;-91
2023/10/30 00:24:29;;;;;;;8.93;3.83;;;;;;;;;;6082316;23;20699;-91
2023/10/30 00:27:34;;;;;;;10.45;3.53;;;;;;;;;;6083603;23;20174;-92
2023/10/30 00:30:42;;;;;;;9.23;4.15;;;;;;;;;;6082784;23;20170;-92
2023/10/30 00:33:48;;;;;;;14.77;3.90;;;;;;;;;;6083427;23;20175;-92
2023/10/30 00:36:53;;;;;;;9.60;3.85;;;;;;;;;;6083099;23;20174;-91
2023/10/30 00:39:59;;;;;;;8.82;3.50;;;;;;;;;;6083294;23;20221;-90
2023/10/30 00:43:04;;;;;;;10.18;3.60;;;;;;;;;;6082767;23;20195;-91
2023/10/30 00:46:10;;;;;;;13.25;4.05;;;;;;;;;;6100988;23;20170;-90
2023/10/30 00:49:16;;;;;;;10.88;4.07;;;;;;;;;;6082099;23;20178;-90
2023/10/30 00:52:21;;;;;;;8.57;3.22;;;;;;;;;;6084524;23;20178;-92
2023/10/30 00:55:26;;;;;;;6.55;3.50;;;;;;;;;;6082203;23;20182;-90
2023/10/30 00:58:32;;;;;;;8.98;4.00;;;;;;;;;;6082468;23;20162;-91
2023/10/30 01:01:39;;;;;;;7.85;3.88;;;;;;;;;;6083066;23;20166;-90
2023/10/30 01:04:45;;;;;;;9.93;4.20;;;;;;;;;;6082306;23;20198;-90
2023/10/30 01:07:50;;;;;;;9.52;4.00;;;;;;;;;;6082352;23;20179;-90
2023/10/30 01:10:56;;;;;;;8.93;4.20;;;;;;;;;;6081220;23;20245;-91
2023/10/30 01:14:02;;;;;;;9.00;3.83;;;;;;;;;;6083471;23;20507;-90
2023/10/30 01:17:12;;;;;;;7.18;3.80;;;;;;;;;;6085224;23;20191;-92
2023/10/30 01:20:18;;;;;;;7.35;3.70;;;;;;;;;;6082648;23;20170;-92
2023/10/30 01:23:23;;;;;;;8.70;4.07;;;;;;;;;;6082949;23;20178;-92
2023/10/30 01:26:29;;;;;;;9.55;3.88;;;;;;;;;;6083990;23;20279;-90
2023/10/30 01:29:34;;;;;;;10.55;4.13;;;;;;;;;;6082890;23;20240;-92
2023/10/30 01:32:45;;;;;;;8.23;3.65;;;;;;;;;;6085382;23;20174;-92
2023/10/30 01:35:51;;;;;;;8.80;4.15;;;;;;;;;;6084155;23;20216;-93
2023/10/30 01:38:58;;;;;;;10.68;4.38;;;;;;;;;;6083024;23;20226;-90
2023/10/30 01:42:06;;;;;;;6.68;4.03;;;;;;;;;;6084331;23;20196;-92
2023/10/30 01:45:12;;;;;;;12.35;4.00;;;;;;;;;;6084316;23;20574;-91
2023/10/30 01:48:20;;;;;;;12.25;4.38;;;;;;;;;;6084645;23;20186;-91
2023/10/30 01:51:26;;;;;;;11.00;4.47;;;;;;;;;;6083252;23;20174;-91
2023/10/30 01:54:31;;;;;;;9.90;4.03;;;;;;;;;;6083064;23;20214;-91
2023/10/30 01:57:36;;;;;;;9.50;4.35;;;;;;;;;;6084005;23;20178;-92
2023/10/30 02:00:42;;;;;;;9.07;4.78;;;;;;;;;;6084585;23;20171;-90
2023/10/30 02:03:52;;;;;;;9.93;4.05;;;;;;;;;;6085065;23;20162;-92
2023/10/30 02:06:57;;;;;;;7.63;4.32;;;;;;;;;;6082920;23;20171;-91
2023/10/30 02:10:03;;;;;;;10.50;4.55;;;;;;;;;;6099049;23;20158;-92
2023/10/30 02:13:12;;;;;;;13.35;4.28;;;;;;;;;;6085020;23;20174;-94
2023/10/30 02:16:17;;;;;;;9.63;4.22;;;;;;;;;;6085088;23;20300;-92
2023/10/30 02:19:25;;;;;;;7.63;4.00;;;;;;;;;;6085130;23;20158;-93
2023/10/30 02:22:31;;;;;;;7.50;4.22;;;;;;;;;;6084565;23;20170;-91
2023/10/30 02:25:38;;;;;;;11.57;4.22;;;;;;;;;;6083655;23;20219;-92
2023/10/30 02:28:43;;;;;;;8.80;4.05;;;;;;;;;;6084941;23;20196;-91
2023/10/30 02:31:50;;;;;;;12.88;3.95;;;;;;;;;;6084103;23;20183;-92
2023/10/30 02:34:55;;;;;;;9.07;4.30;;;;;;;;;;6083298;23;20174;-91
2023/10/30 02:38:00;;;;;;;9.93;4.13;;;;;;;;;;6101256;23;20174;-91
2023/10/30 02:41:07;;;;;;;12.68;4.53;;;;;;;;;;6085240;23;20175;-93
2023/10/30 02:44:12;;;;;;;12.98;4.70;;;;;;;;;;6082870;23;20404;-92
2023/10/30 02:47:17;;;;;;;11.77;4.83;;;;;;;;;;6084491;23;20242;-89
2023/10/30 02:50:23;;;;;;;9.73;4.40;;;;;;;;;;6083667;23;20170;-92
2023/10/30 02:53:28;;;;;;;7.80;4.17;;;;;;;;;;6084999;23;20194;-89
2023/10/30 02:56:35;;;;;;;12.40;4.90;;;;;;;;;;6101270;23;20199;-90
2023/10/30 02:59:40;;;;;;;10.27;4.87;;;;;;;;;;6084274;23;20212;-91
2023/10/30 03:02:46;;;;;;;9.33;4.73;;;;;;;;;;6084074;23;20175;-91
2023/10/30 03:05:51;;;;;;;11.80;5.20;;;;;;;;;;6082672;23;20537;-90
2023/10/30 03:08:57;;;;;;;12.77;4.70;;;;;;;;;;6084066;23;20220;-91
2023/10/30 03:12:04;;;;;;;9.20;4.67;;;;;;;;;;6083726;23;20154;-91
2023/10/30 03:15:10;;;;;;;12.30;4.83;;;;;;;;;;6084084;23;20189;-90
2023/10/30 03:18:15;;;;;;;9.57;4.60;;;;;;;;;;6085027;23;20218;-92
2023/10/30 03:21:21;;;;;;;13.55;4.80;;;;;;;;;;6086078;23;20178;-91
2023/10/30 03:24:26;;;;;;;11.20;5.20;;;;;;;;;;6084655;23;20166;-90
2023/10/30 03:27:33;;;;;;;9.80;5.07;;;;;;;;;;6086248;23;20177;-91
2023/10/30 03:30:38;;;;;;;16.67;5.23;;;;;;;;;;6085257;23;20183;-91
2023/10/30 03:33:44;;;;;;;10.33;5.07;;;;;;;;;;6084985;23;20208;-91
2023/10/30 03:36:49;;;;;;;9.80;5.15;;;;;;;;;;6085822;23;20187;-91
2023/10/30 03:39:54;;;;;;;9.57;5.22;;;;;;;;;;6083911;23;20192;-90
2023/10/30 03:43:01;;;;;;;10.25;4.72;;;;;;;;;;6084306;23;20207;-90
2023/10/30 03:46:06;;;;;;;12.33;5.50;;;;;;;;;;6085006;23;20287;-90
2023/10/30 03:49:13;;;;;;;13.27;4.73;;;;;;;;;;6100151;23;20174;-91
2023/10/30 03:52:18;;;;;;;14.95;5.00;;;;;;;;;;6083835;23;20186;-91
2023/10/30 03:55:24;;;;;;;13.30;5.27;;;;;;;;;;6081947;23;20195;-89
2023/10/30 03:58:31;;;;;;;13.97;4.87;;;;;;;;;;6081909;23;20242;-91
2023/10/30 04:01:36;;;;;;;15.60;5.47;;;;;;;;;;6082508;23;20215;-92
2023/10/30 04:04:42;;;;;;;17.40;5.25;;;;;;;;;;6082353;23;20230;-91
2023/10/30 04:07:47;;;;;;;20.53;5.57;;;;;;;;;;6083294;23;20169;-90
2023/10/30 04:10:52;;;;;;;13.63;5.00;;;;;;;;;;6082498;23;20170;-91
2023/10/30 04:13:59;;;;;;;9.40;4.78;;;;;;;;;;6083437;23;20159;-91
2023/10/30 04:17:05;;;;;;;23.95;5.28;;;;;;;;;;6083146;23;20154;-90
2023/10/30 04:20:11;;;;;;;22.43;5.23;;;;;;;;;;6083219;23;20170;-89
2023/10/30 04:23:17;;;;;;;21.02;5.03;;;;;;;;;;6099163;23;20175;-91
2023/10/30 04:26:23;;;;;;;15.38;5.10;;;;;;;;;;6083045;23;20193;-92
2023/10/30 04:29:29;;;;;;;15.98;4.18;;;;;;;;;;6083821;23;20207;-92
2023/10/30 04:32:35;;;;;;;14.50;4.00;;;;;;;;;;6084927;23;20174;-92
2023/10/30 04:35:41;;;;;;;11.60;4.37;;;;;;;;;;6084686;23;20174;-91
2023/10/30 04:38:47;;;;;;;15.95;4.60;;;;;;;;;;6085752;23;20514;-89
2023/10/30 04:41:53;;;;;;;15.90;4.35;;;;;;;;;;6085994;23;20161;-92
2023/10/30 04:45:00;;;;;;;11.60;4.17;;;;;;;;;;6083455;23;20174;-92
2023/10/30 04:48:05;;;;;;;13.45;3.63;;;;;;;;;;6084026;23;20283;-92
2023/10/30 04:51:10;;;;;;;10.48;4.20;;;;;;;;;;6084822;23;20204;-92
2023/10/30 04:54:16;;;;;;;7.78;4.28;;;;;;;;;;6084439;23;20198;-91
2023/10/30 04:57:21;;;;;;;11.70;4.10;;;;;;;;;;6085055;23;20179;-91
2023/10/30 05:00:28;;;;;;;9.82;4.68;;;;;;;;;;6084787;23;20177;-91
2023/10/30 05:03:33;;;;;;;11.20;4.25;;;;;;;;;;6083436;23;20175;-91
2023/10/30 05:06:39;;;;;;;8.98;4.35;;;;;;;;;;6084119;23;20198;-92
2023/10/30 05:09:44;;;;;;;10.15;3.95;;;;;;;;;;6083588;23;20174;-91
2023/10/30 05:12:49;;;;;;;9.07;4.55;;;;;;;;;;6084017;23;20171;-91
2023/10/30 05:15:57;;;;;;;9.73;4.43;;;;;;;;;;6084702;23;20217;-91
2023/10/30 05:19:03;;;;;;;9.07;4.53;;;;;;;;;;6086491;23;20509;-91
2023/10/30 05:22:08;;;;;;;10.10;4.35;;;;;;;;;;6103650;23;20170;-91
2023/10/30 05:25:13;;;;;;;10.15;4.55;;;;;;;;;;6103329;23;20297;-91
2023/10/30 05:28:19;;;;;;;6.83;4.13;;;;;;;;;;6101777;23;20246;-93
2023/10/30 05:31:26;;;;;;;6.80;4.00;;;;;;;;;;6087483;23;20166;-91
2023/10/30 05:34:31;;;;;;;7.47;4.10;;;;;;;;;;6102609;23;20150;-92
2023/10/30 05:37:47;;;;;;;5.80;3.80;;;;;;;;;;6086585;23;20214;-90
2023/10/30 05:40:52;;;;;;;7.97;4.32;;;;;;;;;;6085918;23;20170;-90
2023/10/30 05:43:58;;;;;;;8.63;3.92;;;;;;;;;;6086271;23;20261;-92
2023/10/30 05:47:05;;;;;;;7.88;3.47;;;;;;;;;;6086893;23;20193;-90
2023/10/30 05:50:11;;;;;;;6.47;3.60;;;;;;;;;;6086138;23;20238;-93
2023/10/30 05:53:16;;;;;;;5.28;3.15;;;;;;;;;;6085541;23;20194;-91
2023/10/30 05:56:21;;;;;;;5.60;3.77;;;;;;;;;;6085162;23;20186;-92
2023/10/30 05:59:26;;;;;;;6.32;3.47;;;;;;;;;;6084376;23;20518;-89
2023/10/30 06:02:34;;;;;;;9.35;3.50;;;;;;;;;;6085232;23;20178;-91
2023/10/30 06:05:39;;;;;;;7.40;3.90;;;;;;;;;;6102098;23;20201;-91
2023/10/30 06:08:44;;;;;;;12.70;4.75;;;;;;;;;;6084656;23;20235;-91
2023/10/30 06:11:50;;;;;;;9.00;5.15;;;;;;;;;;6084844;23;20211;-91
2023/10/30 06:14:55;;;;;;;10.40;5.28;;;;;;;;;;6077993;23;20345;-90
2023/10/30 06:18:03;;;;;;;9.23;4.93;;;;;;;;;;6114964;23;20149;-91
2023/10/30 06:21:09;;;;;;;13.85;5.70;;;;;;;;;;6111744;23;20235;-90
2023/10/30 06:24:14;;;;;;;8.13;4.45;;;;;;;;;;6112104;23;20194;-91
2023/10/30 06:27:19;;;;;;;17.70;5.68;;;;;;;;;;6112362;23;20185;-90
2023/10/30 06:30:25;;;;;;;12.77;5.82;;;;;;;;;;6113233;23;20174;-91
2023/10/30 06:33:33;;;;;;;13.50;5.65;;;;;;;;;;6115337;23;20205;-91
2023/10/30 06:36:39;;;;;;;10.35;5.60;;;;;;;;;;6114938;23;20173;-91
2023/10/30 06:39:44;;;;;;;25.10;5.87;;;;;;;;;;6130623;23;20178;-91
2023/10/30 06:42:50;;;;;;;13.23;5.70;;;;;;;;;;6113451;23;20202;-92
2023/10/30 06:45:59;;;;;;;13.27;5.80;;;;;;;;;;6113130;23;20198;-91
2023/10/30 06:49:09;;;;;;;18.98;6.10;;;;;;;;;;6113195;23;20173;-91
2023/10/30 06:52:15;;;;;;;23.95;6.97;;;;;;;;;;6113054;23;20250;-91
2023/10/30 06:55:20;;;;;;;15.20;7.18;;;;;;;;;;6113827;23;20162;-91
2023/10/30 06:58:26;;;;;;;17.88;6.60;;;;;;;;;;6112397;23;20166;-92
2023/10/30 07:01:42;;;;;;;15.00;6.28;;;;;;;;;;6114361;23;20211;-91
2023/10/30 07:04:48;;;;;;;14.23;5.72;;;;;;;;;;6112709;23;20219;-93
2023/10/30 07:07:53;;;;;;;16.45;6.05;;;;;;;;;;6112706;23;20173;-91
2023/10/30 07:10:59;;;;;;;14.90;5.68;;;;;;;;;;6112469;23;20653;-91
2023/10/30 07:14:06;;;;;;;16.77;6.20;;;;;;;;;;6114567;23;20158;-91
2023/10/30 07:17:11;;;;;;;11.13;5.85;;;;;;;;;;6114412;23;20197;-92
2023/10/30 07:20:18;;;;;;;17.38;6.07;;;;;;;;;;6114283;23;20172;-91
2023/10/30 07:23:23;;;;;;;14.38;6.05;;;;;;;;;;6113997;23;20166;-90
2023/10/30 07:26:29;;;;;;;12.98;6.15;;;;;;;;;;6115470;23;20197;-92
2023/10/30 07:29:35;;;;;;;14.05;5.93;;;;;;;;;;6113984;23;20162;-91
2023/10/30 07:32:40;;;;;;;11.43;5.45;;;;;;;;;;6113656;23;20290;-93
2023/10/30 07:35:53;;;;;;;14.77;5.93;;;;;;;;;;6118629;23;20215;-90
2023/10/30 07:39:00;;;;;;;12.43;5.93;;;;;;;;;;6113227;23;20174;-91
2023/10/30 07:42:07;;;;;;;14.32;6.10;;;;;;;;;;6113667;23;20302;-92
2023/10/30 07:45:14;;;;;;;11.68;5.70;;;;;;;;;;6114422;23;20158;-93
2023/10/30 07:48:20;;;;;;;13.98;5.72;;;;;;;;;;6115030;23;20654;-91
2023/10/30 07:51:31;;;;;;;9.43;5.40;;;;;;;;;;6114441;23;20170;-89
2023/10/30 07:54:38;;;;;;;8.27;4.97;;;;;;;;;;6114296;23;20161;-91
2023/10/30 07:57:43;;;;;;;13.32;5.40;;;;;;;;;;6114655;23;20161;-91
2023/10/30 08:00:48;;;;;;;12.98;5.38;;;;;;;;;;6114424;23;20158;-93
2023/10/30 08:03:54;;;;;;;11.82;4.65;;;;;;;;;;6114997;23;20194;-90
2023/10/30 08:07:01;;;;;;;9.40;4.80;;;;;;;;;;6112805;23;20200;-90
2023/10/30 08:10:08;;;;;;;11.20;4.63;;;;;;;;;;6113714;23;20316;-91
2023/10/30 08:13:14;;;;;;;7.63;4.50;;;;;;;;;;6116233;23;20157;-91
2023/10/30 08:16:19;;;;;;;9.15;4.45;;;;;;;;;;6114324;23;20197;-91
2023/10/30 08:19:25;;;;;;;7.32;4.57;;;;;;;;;;6116146;23;20198;-90
2023/10/30 08:22:32;;;;;;;8.20;4.45;;;;;;;;;;6112831;23;20203;-91
2023/10/30 08:25:38;;;;;;;7.68;3.92;;;;;;;;;;6112088;23;20222;-91
2023/10/30 08:28:45;;;;;;;5.90;3.95;;;;;;;;;;6113968;23;20173;-91
2023/10/30 08:35:11;;;;;;;8.40;3.70;;;;;;;;;;6114703;23;20162;-91
2023/10/30 08:41:19;;;;;;;8.27;4.07;;;;;;;;;;6086177;23;20167;-91
2023/10/30 08:44:25;;;;;;;6.53;3.97;;;;;;;;;;6085297;23;20206;-90
2023/10/30 08:47:30;;;;;;;12.23;4.05;;;;;;;;;;6086065;23;20202;-92
2023/10/30 08:50:36;;;;;;;6.93;3.72;;;;;;;;;;6086980;23;20169;-91
2023/10/30 08:53:41;;;;;;;4.68;3.28;;;;;;;;;;6086866;23;20171;-92
2023/10/30 08:56:48;;;;;;;5.47;3.20;;;;;;;;;;6087469;23;20170;-89
2023/10/30 08:59:54;;;;;;;6.28;2.92;;;;;;;;;;6087054;23;20157;-92
2023/10/30 09:02:59;;;;;;;5.15;3.05;;;;;;;;;;6087447;23;20512;-91
2023/10/30 09:06:05;;;;;;;6.28;3.13;;;;;;;;;;6086979;23;20228;-91
2023/10/30 09:09:11;;;;;;;7.63;3.10;;;;;;;;;;6085626;23;20178;-90
2023/10/30 09:12:18;;;;;;;4.07;2.70;;;;;;;;;;6086281;23;20175;-90
2023/10/30 09:15:24;;;;;;;6.53;3.03;;;;;;;;;;6086896;23;20236;-91
2023/10/30 09:18:30;;;;;;;7.32;3.28;;;;;;;;;;6104569;23;20254;-91
2023/10/30 09:21:36;;;;;;;8.70;2.92;;;;;;;;;;6087120;23;20186;-93
2023/10/30 09:24:42;;;;;;;7.80;2.92;;;;;;;;;;6085439;23;20218;-90
2023/10/30 09:27:50;;;;;;;9.00;3.45;;;;;;;;;;6084148;23;20198;-91
2023/10/30 09:30:56;;;;;;;8.82;2.70;;;;;;;;;;6084768;23;20174;-90
2023/10/30 09:34:01;;;;;;;5.50;2.72;;;;;;;;;;6085376;23;20170;-90
2023/10/30 09:37:10;;;;;;;5.25;3.40;;;;;;;;;;6087344;23;20158;-91
2023/10/30 09:40:15;;;;;;;6.50;3.03;;;;;;;;;;6086222;23;20273;-91
2023/10/30 09:43:22;;;;;;;5.55;2.88;;;;;;;;;;6087573;23;20174;-90
2023/10/30 09:46:30;;;;;;;4.80;2.90;;;;;;;;;;6087594;23;20197;-92
2023/10/30 09:49:37;;;;;;;5.63;3.70;;;;;;;;;;6085353;23;20158;-91
2023/10/30 09:52:43;;;;;;;5.13;3.15;;;;;;;;;;6086067;23;20215;-91
2023/10/30 09:55:49;;;;;;;7.35;3.08;;;;;;;;;;6086632;23;20170;-91
2023/10/30 09:58:57;;;;;;;6.85;3.50;;;;;;;;;;6103536;23;20169;-92
2023/10/30 10:02:03;;;;;;;7.57;3.17;;;;;;;;;;6086484;23;20170;-91
2023/10/30 10:05:11;;;;;;;5.97;2.78;;;;;;;;;;6086282;23;20181;-91
2023/10/30 10:08:17;;;;;;;21.20;4.63;;;;;;;;;;6102213;23;20185;-92
2023/10/30 10:11:23;;;;;;;5.68;3.28;;;;;;;;;;6086493;23;20155;-90
2023/10/30 10:14:32;;;;;;;7.57;3.50;;;;;;;;;;6086322;23;20175;-92
2023/10/30 10:17:44;;;;;;;6.75;3.20;;;;;;;;;;6085783;23;20259;-92
2023/10/30 10:20:58;;;;;;;5.20;3.08;;;;;;;;;;6084480;23;20170;-91
2023/10/30 10:30:44;;;;;;;6.18;2.85;;;;;;;;;;6056059;23;20176;-93
2023/10/30 10:33:51;;;;;;;6.15;3.38;;;;;;;;;;6057988;23;20208;-91
2023/10/30 10:36:59;;;;;;;9.60;3.58;;;;;;;;;;6057766;23;20217;-90
2023/10/30 10:40:05;;;;;;;5.07;3.35;;;;;;;;;;6057028;23;20201;-91
2023/10/30 10:43:10;;;;;;;6.28;3.67;;;;;;;;;;6055998;23;20171;-91
2023/10/30 10:46:18;;;;;;;6.63;3.67;;;;;;;;;;6055429;23;20292;-91
2023/10/30 10:49:23;;;;;;;8.18;3.30;;;;;;;;;;6056701;23;20167;-91
2023/10/30 10:52:30;;;;;;;14.00;4.00;;;;;;;;;;6060894;23;20208;-90
2023/10/30 10:55:41;;;;;;;6.45;2.67;;;;;;;;;;6058148;23;20231;-93
2023/10/30 10:58:55;;;;;;;6.32;3.28;;;;;;;;;;6060454;23;20181;-91
2023/10/30 11:08:51;;;;;;;9.10;3.83;;;;;;;;;;6061789;23;20203;-92
2023/10/30 11:15:03;;;;;;;8.38;3.20;;;;;;;;;;6117945;23;20685;-92
2023/10/30 11:21:51;;;;;;;6.30;3.47;;;;;;;;;;6115262;23;20246;-92
2023/10/30 11:24:57;;;;;;;10.48;3.90;;;;;;;;;;6118731;23;20162;-93
2023/10/30 11:28:04;;;;;;;5.47;3.47;;;;;;;;;;6113609;23;20201;-92
2023/10/30 11:31:09;;;;;;;6.28;3.63;;;;;;;;;;6114096;23;20169;-91
2023/10/30 11:34:16;;;;;;;7.25;3.25;;;;;;;;;;6131313;23;20214;-91
2023/10/30 11:40:24;;;;;;;5.90;3.20;;;;;;;;;;6084547;23;20267;-91
2023/10/30 11:43:35;;;;;;;8.50;2.97;;;;;;;;;;6104013;23;20468;-91
2023/10/30 11:46:42;;;;;;;5.40;3.20;;;;;;;;;;6102827;23;20281;-91
2023/10/30 11:49:48;;;;;;;6.28;3.10;;;;;;;;;;6085644;23;20167;-94
2023/10/30 11:52:55;;;;;;;4.55;2.75;;;;;;;;;;6085271;23;20170;-91
2023/10/30 11:56:05;;;;;;;9.23;2.90;;;;;;;;;;6087850;23;20189;-91
2023/10/30 11:59:11;;;;;;;4.53;2.78;;;;;;;;;;6087054;23;20211;-90
2023/10/30 12:02:20;;;;;;;5.43;2.92;;;;;;;;;;6088842;23;20179;-89
2023/10/30 12:05:27;;;;;;;5.85;3.10;;;;;;;;;;6088055;23;20162;-92
2023/10/30 12:08:34;;;;;;;7.20;3.08;;;;;;;;;;6087182;23;20206;-88
2023/10/30 12:11:46;;;;;;;7.97;3.30;;;;;;;;;;6086891;23;20171;-90
2023/10/30 12:45:17;;;;;;;7.18;3.70;;;;;;;;;;6087009;23;20175;-90
2023/10/30 12:48:24;;;;;;;8.30;4.10;;;;;;;;;;6085865;23;20198;-91
2023/10/30 12:51:30;;;;;;;7.88;4.03;;;;;;;;;;6085019;23;20287;-91
2023/10/30 12:54:36;;;;;;;9.93;4.45;;;;;;;;;;6085255;23;20207;-91
2023/10/30 12:57:43;;;;;;;5.65;3.22;;;;;;;;;;6085291;23;20215;-91
2023/10/30 13:00:50;;;;;;;28.40;16.70;;;;;;;;;;6084944;23;20170;-90
2023/10/30 13:03:56;;;;;;;27.70;19.45;;;;;;;;;;6068042;23;20242;-89
2023/10/30 13:07:02;;;;;;;10.18;5.43;;;;;;;;;;6085281;23;20234;-90
2023/10/30 13:10:10;;;;;;;7.95;3.92;;;;;;;;;;6086710;23;20473;-92
2023/10/30 13:13:16;;;;;;;6.05;3.58;;;;;;;;;;6085809;23;20171;-91
2023/10/30 13:19:59;;;;;;;8.93;3.45;;;;;;;;;;6087642;23;20240;-89
2023/10/30 13:23:05;;;;;;;10.82;3.80;;;;;;;;;;6089431;23;20543;-92
2023/10/30 13:26:11;;;;;;;6.85;2.40;;;;;;;;;;6085372;23;20185;-91
2023/10/30 13:29:17;;;;;;;4.63;2.30;;;;;;;;;;6086202;23;20190;-89
2023/10/30 13:32:23;;;;;;;8.13;2.45;;;;;;;;;;6084454;23;20174;-92
2023/10/30 13:38:51;;;;;;;8.45;3.88;;;;;;;;;;6103083;23;20251;-90
2023/10/30 13:48:35;;;;;;;11.10;5.20;;;;;;;;;;6087556;23;20190;-89
2023/10/30 13:51:49;;;;;;;9.77;4.30;;;;;;;;;;6088289;23;20175;-90
2023/10/30 13:54:55;;;;;;;11.30;3.92;;;;;;;;;;6087889;23;20170;-91
2023/10/30 13:58:02;;;;;;;9.30;4.00;;;;;;;;;;6086700;23;20170;-92
2023/10/30 14:01:08;;;;;;;12.88;3.90;;;;;;;;;;6087682;23;20219;-90
2023/10/30 14:04:14;;;;;;;6.05;3.30;;;;;;;;;;6084236;23;20855;-90
2023/10/30 14:07:38;;;;;;;7.63;3.58;;;;;;;;;;6089894;23;20170;-90
2023/10/30 14:10:47;;;;;;;8.30;3.63;;;;;;;;;;6087179;23;20215;-90
2023/10/30 14:13:54;;;;;;;11.23;4.97;;;;;;;;;;6104873;23;20154;-91
2023/10/30 14:16:59;;;;;;;7.75;3.45;;;;;;;;;;6089940;23;20243;-91
2023/10/30 14:20:05;;;;;;;6.88;3.42;;;;;;;;;;6088149;23;20171;-91
2023/10/30 14:23:12;;;;;;;10.93;4.28;;;;;;;;;;6089535;23;20178;-89
2023/10/30 14:26:24;;;;;;;8.10;3.88;;;;;;;;;;6089049;23;20223;-90
2023/10/30 14:29:30;;;;;;;8.52;3.50;;;;;;;;;;6089452;23;20202;-93
2023/10/30 14:32:40;;;;;;;9.80;4.00;;;;;;;;;;6089324;23;20163;-92
2023/10/30 14:35:45;;;;;;;9.57;3.38;;;;;;;;;;6090858;23;20166;-90
2023/10/30 14:38:59;;;;;;;11.45;3.50;;;;;;;;;;6091234;23;20191;-92
2023/10/30 14:42:20;;;;;;;13.10;4.10;;;;;;;;;;6092019;23;20174;-90
2023/10/30 14:45:27;;;;;;;8.88;3.75;;;;;;;;;;6106081;23;20232;-91
2023/10/30 14:48:32;;;;;;;8.25;3.60;;;;;;;;;;6089242;23;20182;-90
2023/10/30 14:51:38;;;;;;;9.13;3.78;;;;;;;;;;6086643;23;20190;-90
2023/10/30 14:54:46;;;;;;;10.40;4.57;;;;;;;;;;6087451;23;20174;-90
2023/10/30 14:57:54;;;;;;;11.60;3.85;;;;;;;;;;6087419;23;20227;-90
2023/10/30 15:01:00;;;;;;;11.10;4.22;;;;;;;;;;6085627;23;20274;-90
2023/10/30 15:04:08;;;;;;;8.80;4.05;;;;;;;;;;6103480;23;20166;-90
2023/10/30 15:07:13;;;;;;;12.95;4.85;;;;;;;;;;6087906;23;20220;-91
2023/10/30 15:10:19;;;;;;;13.80;7.50;;;;;;;;;;6085065;23;20170;-90
2023/10/30 15:13:26;;;;;;;131.18;55.88;;;;;;;;;;6086130;23;20228;-92
2023/10/30 15:16:31;;;;;;;17.85;8.30;;;;;;;;;;6101503;23;20171;-93
2023/10/30 15:22:56;;;;;;;14.25;4.25;;;;;;;;;;6085252;23;20175;-93
2023/10/30 15:26:02;;;;;;;11.13;4.75;;;;;;;;;;6083770;23;20526;-91
2023/10/30 15:29:09;;;;;;;17.25;5.60;;;;;;;;;;6083794;23;20255;-91
2023/10/30 15:32:15;;;;;;;12.23;5.15;;;;;;;;;;6082102;23;20230;-90
2023/10/30 15:35:22;;;;;;;12.63;5.25;;;;;;;;;;6082486;23;20179;-91
2023/10/30 15:38:28;;;;;;;13.27;5.60;;;;;;;;;;6083237;23;20179;-91
2023/10/30 15:41:34;;;;;;;12.25;5.93;;;;;;;;;;6083900;23;20200;-90
2023/10/30 15:44:41;;;;;;;14.75;5.45;;;;;;;;;;6064969;23;20219;-91
2023/10/30 15:47:48;;;;;;;11.18;4.05;;;;;;;;;;6055309;23;20175;-91
2023/10/30 15:50:58;;;;;;;15.15;6.93;;;;;;;;;;6055966;23;20164;-90
2023/10/30 15:54:04;;;;;;;15.90;6.43;;;;;;;;;;6056844;23;20172;-91
2023/10/30 15:57:09;;;;;;;13.23;5.88;;;;;;;;;;6056655;23;20175;-91
2023/10/30 16:00:20;;;;;;;10.38;5.55;;;;;;;;;;6062827;23;20260;-90
2023/10/30 16:03:30;;;;;;;15.38;5.40;;;;;;;;;;6057666;23;20284;-90
2023/10/30 16:06:38;;;;;;;14.02;5.72;;;;;;;;;;6059842;23;20159;-91
2023/10/30 16:09:44;;;;;;;16.90;6.97;;;;;;;;;;6060405;23;20247;-92
2023/10/30 16:12:53;;;;;;;14.65;6.10;;;;;;;;;;6060847;23;20216;-91
2023/10/30 16:16:01;;;;;;;16.23;6.60;;;;;;;;;;6076014;23;20167;-90
2023/10/30 16:19:08;;;;;;;16.08;7.30;;;;;;;;;;6055556;23;20175;-92
2023/10/30 16:22:14;;;;;;;12.52;6.55;;;;;;;;;;6072175;23;20159;-90
2023/10/30 16:25:20;;;;;;;16.75;6.47;;;;;;;;;;6055083;23;20170;-92
2023/10/30 16:28:26;;;;;;;15.93;6.70;;;;;;;;;;6055242;23;20199;-92
2023/10/30 16:31:35;;;;;;;16.60;7.28;;;;;;;;;;6054283;23;20216;-92
2023/10/30 16:34:45;;;;;;;18.63;7.45;;;;;;;;;;6055315;23;20180;-91
2023/10/30 16:37:51;;;;;;;15.38;7.10;;;;;;;;;;6058086;23;20158;-91
2023/10/30 16:40:57;;;;;;;15.45;6.93;;;;;;;;;;6056921;23;20170;-92
2023/10/30 16:44:06;;;;;;;15.00;6.40;;;;;;;;;;6056313;23;20214;-91
2023/10/30 16:47:13;;;;;;;12.82;6.07;;;;;;;;;;6055511;23;20159;-91
2023/10/30 16:50:23;;;;;;;16.60;6.57;;;;;;;;;;6058848;23;20196;-93
2023/10/30 16:53:34;;;;;;;14.50;5.43;;;;;;;;;;6061863;23;20185;-90
2023/10/30 16:56:42;;;;;;;13.68;5.25;;;;;;;;;;6042688;23;20255;-91
2023/10/30 16:59:48;;;;;;;9.88;3.80;;;;;;;;;;6058197;23;20239;-90
2023/10/30 17:03:08;;;;;;;10.05;3.95;;;;;;;;;;6059014;23;20179;-91
2023/10/30 17:06:15;;;;;;;11.13;4.63;;;;;;;;;;6058972;23;20188;-90
2023/10/30 17:09:21;;;;;;;134.52;45.55;;;;;;;;;;6058663;23;20203;-92
2023/10/30 17:12:27;;;;;;;17.65;7.35;;;;;;;;;;6039441;23;20171;-91
2023/10/30 17:15:32;;;;;;;13.00;5.65;;;;;;;;;;6060996;23;20220;-91
2023/10/30 17:18:43;;;;;;;12.63;5.85;;;;;;;;;;6061096;23;20171;-91
2023/10/30 17:21:49;;;;;;;19.27;8.43;;;;;;;;;;6062241;23;20175;-91
2023/10/30 17:24:57;;;;;;;15.48;7.32;;;;;;;;;;6060596;23;20159;-91
2023/10/30 17:28:03;;;;;;;13.75;7.03;;;;;;;;;;6062436;23;20224;-91
2023/10/30 17:31:09;;;;;;;18.15;8.82;;;;;;;;;;6061375;23;20156;-91
2023/10/30 17:34:19;;;;;;;14.45;7.40;;;;;;;;;;6045339;23;20159;-90
2023/10/30 17:37:29;;;;;;;11.90;5.57;;;;;;;;;;6059219;23;20175;-91
2023/10/30 17:40:37;;;;;;;15.68;6.72;;;;;;;;;;6061421;23;20175;-89
2023/10/30 17:43:45;;;;;;;14.93;7.53;;;;;;;;;;6061682;23;20607;-90
2023/10/30 17:46:53;;;;;;;16.02;7.30;;;;;;;;;;6060054;23;20212;-91
2023/10/30 17:50:06;;;;;;;17.98;7.88;;;;;;;;;;6059783;23;20228;-91
2023/10/30 17:53:12;;;;;;;15.32;6.80;;;;;;;;;;6061067;23;20175;-91
2023/10/30 17:56:17;;;;;;;14.70;7.07;;;;;;;;;;6059474;23;20167;-93
2023/10/30 17:59:26;;;;;;;19.77;6.65;;;;;;;;;;6060739;23;20175;-91
2023/10/30 18:02:34;;;;;;;21.02;8.50;;;;;;;;;;6061374;23;20324;-90
2023/10/30 18:05:47;;;;;;;24.75;10.25;;;;;;;;;;6061303;23;20223;-89
2023/10/30 18:08:57;;;;;;;13.02;6.20;;;;;;;;;;6060960;23;20184;-90
2023/10/30 18:12:03;;;;;;;26.88;9.73;;;;;;;;;;6060530;23;20676;-90
2023/10/30 18:15:10;;;;;;;15.65;7.57;;;;;;;;;;6076816;23;20176;-91
2023/10/30 18:18:16;;;;;;;18.33;7.22;;;;;;;;;;6060672;23;20172;-90
2023/10/30 18:21:37;;;;;;;16.80;7.10;;;;;;;;;;6059229;23;20163;-91
2023/10/30 18:24:46;;;;;;;13.13;6.25;;;;;;;;;;6060344;23;20159;-91
2023/10/30 18:27:52;;;;;;;20.65;7.85;;;;;;;;;;6062057;23;20171;-91
2023/10/30 18:31:02;;;;;;;19.75;9.40;;;;;;;;;;6062983;23;20225;-90
2023/10/30 18:34:10;;;;;;;16.92;8.07;;;;;;;;;;6044806;23;20167;-92
2023/10/30 18:37:18;;;;;;;27.90;8.43;;;;;;;;;;6060408;23;20180;-89
2023/10/30 18:40:29;;;;;;;21.33;8.93;;;;;;;;;;6060526;23;20212;-89
2023/10/30 18:43:35;;;;;;;25.55;10.10;;;;;;;;;;6060600;23;20216;-90
2023/10/30 18:46:40;;;;;;;30.52;13.90;;;;;;;;;;6059819;23;20167;-89
2023/10/30 18:49:46;;;;;;;32.40;17.60;;;;;;;;;;6059553;23;20198;-93
2023/10/30 18:52:54;;;;;;;38.28;16.98;;;;;;;;;;6059543;23;20159;-91
2023/10/30 18:56:01;;;;;;;32.35;14.18;;;;;;;;;;6059808;23;20188;-91
2023/10/30 18:59:07;;;;;;;42.25;15.80;;;;;;;;;;6061194;23;20174;-91
2023/10/30 19:02:12;;;;;;;31.00;10.88;;;;;;;;;;6059121;23;20171;-90
2023/10/30 19:05:18;;;;;;;25.75;9.13;;;;;;;;;;6061973;23;20188;-91
2023/10/30 19:08:24;;;;;;;20.25;8.23;;;;;;;;;;6075589;23;20248;-90
2023/10/30 19:11:32;;;;;;;14.30;7.30;;;;;;;;;;6059039;23;20163;-88
2023/10/30 19:14:38;;;;;;;16.08;7.18;;;;;;;;;;6059163;23;20175;-92
2023/10/30 19:17:44;;;;;;;19.77;8.50;;;;;;;;;;6058139;23;20200;-91
2023/10/30 19:20:53;;;;;;;23.33;8.95;;;;;;;;;;6059099;23;20174;-93
2023/10/30 19:24:01;;;;;;;18.80;7.63;;;;;;;;;;6058443;23;20167;-90
2023/10/30 19:27:10;;;;;;;17.40;8.02;;;;;;;;;;6061419;23;20184;-90
2023/10/30 19:33:12;;;;;;;14.27;7.75;;;;;;;;;;6084973;23;20662;-89
2023/10/30 19:36:17;;;;;;;17.42;7.63;;;;;;;;;;6099311;23;20174;-90
2023/10/30 19:39:22;;;;;;;18.20;8.07;;;;;;;;;;6083668;23;20211;-94
2023/10/30 19:42:29;;;;;;;19.35;8.75;;;;;;;;;;6088691;23;20178;-92
2023/10/30 19:45:41;;;;;;;20.65;9.70;;;;;;;;;;6091061;23;20655;-90
2023/10/30 19:48:47;;;;;;;24.00;11.10;;;;;;;;;;6106291;23;20207;-90
2023/10/30 19:51:52;;;;;;;27.58;9.32;;;;;;;;;;6088478;23;20182;-92